sensor_id;sensor_type;location;lat;lon;timestamp;P1;durP1;ratioP1;P2;durP2;ratioP2
39242;SDS011;29823;47.404;8.566;2023-07-13T00:01:18;12.85;;;6.53;;
39242;SDS011;29823;47.404;8.566;2023-07-13T00:03:47;13.35;;;6.47;;
39242;SDS011;29823;47.404;8.566;2023-07-13T00:06:15;17.33;;;6.47;;
39242;SDS011;29823;47.404;8.566;2023-07-13T00:08:43;21.33;;;7.75;;
39242;SDS011;29823;47.404;8.566;2023-07-13T00:11:11;11.45;;;6.97;;
39242;SDS011;29823;47.404;8.566;2023-07-13T00:13:38;15.48;;;6.40;;
39242;SDS011;29823;47.404;8.566;2023-07-13T00:16:07;16.95;;;6.60;;
39242;SDS011;29823;47.404;8.566;2023-07-13T00:18:36;16.25;;;8.48;;
39242;SDS011;29823;47.404;8.566;2023-07-13T00:21:05;23.40;;;6.53;;
39242;SDS011;29823;47.404;8.566;2023-07-13T00:23:35;17.45;;;6.38;;
39242;SDS011;29823;47.404;8.566;2023-07-13T00:26:05;14.13;;;6.22;;
39242;SDS011;29823;47.404;8.566;2023-07-13T00:28:35;15.45;;;5.93;;
39242;SDS011;29823;47.404;8.566;2023-07-13T00:31:05;21.25;;;6.22;;
39242;SDS011;29823;47.404;8.566;2023-07-13T00:33:34;17.67;;;6.20;;
39242;SDS011;29823;47.404;8.566;2023-07-13T00:36:03;11.02;;;5.80;;
39242;SDS011;29823;47.404;8.566;2023-07-13T00:38:33;13.98;;;6.38;;
39242;SDS011;29823;47.404;8.566;2023-07-13T00:41:01;16.88;;;6.47;;
39242;SDS011;29823;47.404;8.566;2023-07-13T00:43:30;13.45;;;6.30;;
39242;SDS011;29823;47.404;8.566;2023-07-13T00:46:19;13.50;;;6.55;;
39242;SDS011;29823;47.404;8.566;2023-07-13T00:48:49;10.10;;;6.07;;
39242;SDS011;29823;47.404;8.566;2023-07-13T00:51:23;11.40;;;5.95;;
39242;SDS011;29823;47.404;8.566;2023-07-13T00:53:59;12.07;;;6.50;;
39242;SDS011;29823;47.404;8.566;2023-07-13T00:56:31;8.90;;;5.07;;
39242;SDS011;29823;47.404;8.566;2023-07-13T00:59:00;12.38;;;6.05;;
39242;SDS011;29823;47.404;8.566;2023-07-13T01:01:30;9.98;;;6.07;;
39242;SDS011;29823;47.404;8.566;2023-07-13T01:03:58;10.70;;;6.15;;
39242;SDS011;29823;47.404;8.566;2023-07-13T01:06:27;12.52;;;6.55;;
39242;SDS011;29823;47.404;8.566;2023-07-13T01:08:56;13.02;;;5.80;;
39242;SDS011;29823;47.404;8.566;2023-07-13T01:11:26;18.92;;;5.93;;
39242;SDS011;29823;47.404;8.566;2023-07-13T01:13:54;9.90;;;5.25;;
39242;SDS011;29823;47.404;8.566;2023-07-13T01:16:24;7.95;;;4.97;;
39242;SDS011;29823;47.404;8.566;2023-07-13T01:18:54;10.15;;;5.10;;
39242;SDS011;29823;47.404;8.566;2023-07-13T01:21:26;14.70;;;5.10;;
39242;SDS011;29823;47.404;8.566;2023-07-13T01:23:54;10.25;;;5.35;;
39242;SDS011;29823;47.404;8.566;2023-07-13T01:26:22;9.93;;;5.35;;
39242;SDS011;29823;47.404;8.566;2023-07-13T01:28:50;14.60;;;5.63;;
39242;SDS011;29823;47.404;8.566;2023-07-13T01:31:17;6.80;;;4.90;;
39242;SDS011;29823;47.404;8.566;2023-07-13T01:33:45;12.30;;;5.75;;
39242;SDS011;29823;47.404;8.566;2023-07-13T01:36:13;15.00;;;5.80;;
39242;SDS011;29823;47.404;8.566;2023-07-13T01:38:42;13.43;;;5.82;;
39242;SDS011;29823;47.404;8.566;2023-07-13T01:41:11;21.00;;;5.82;;
39242;SDS011;29823;47.404;8.566;2023-07-13T01:43:39;13.13;;;5.95;;
39242;SDS011;29823;47.404;8.566;2023-07-13T01:46:06;15.10;;;5.88;;
39242;SDS011;29823;47.404;8.566;2023-07-13T01:48:48;9.85;;;5.15;;
39242;SDS011;29823;47.404;8.566;2023-07-13T01:51:18;10.52;;;5.60;;
39242;SDS011;29823;47.404;8.566;2023-07-13T01:53:48;10.73;;;5.72;;
39242;SDS011;29823;47.404;8.566;2023-07-13T01:56:16;13.00;;;5.95;;
39242;SDS011;29823;47.404;8.566;2023-07-13T01:58:44;15.20;;;5.70;;
39242;SDS011;29823;47.404;8.566;2023-07-13T02:01:12;11.73;;;5.43;;
39242;SDS011;29823;47.404;8.566;2023-07-13T02:03:40;12.57;;;5.88;;
39242;SDS011;29823;47.404;8.566;2023-07-13T02:06:08;10.27;;;5.30;;
39242;SDS011;29823;47.404;8.566;2023-07-13T02:08:36;11.43;;;5.80;;
39242;SDS011;29823;47.404;8.566;2023-07-13T02:11:06;9.32;;;6.10;;
39242;SDS011;29823;47.404;8.566;2023-07-13T02:13:33;10.85;;;5.85;;
39242;SDS011;29823;47.404;8.566;2023-07-13T02:16:01;7.65;;;5.30;;
39242;SDS011;29823;47.404;8.566;2023-07-13T02:18:29;14.82;;;5.40;;
39242;SDS011;29823;47.404;8.566;2023-07-13T02:20:57;12.65;;;5.60;;
39242;SDS011;29823;47.404;8.566;2023-07-13T02:23:25;12.93;;;5.65;;
39242;SDS011;29823;47.404;8.566;2023-07-13T02:25:54;10.80;;;5.30;;
39242;SDS011;29823;47.404;8.566;2023-07-13T02:28:24;13.68;;;5.32;;
39242;SDS011;29823;47.404;8.566;2023-07-13T02:30:52;8.80;;;5.20;;
39242;SDS011;29823;47.404;8.566;2023-07-13T02:33:20;11.30;;;5.15;;
39242;SDS011;29823;47.404;8.566;2023-07-13T02:35:47;0.55;;;0.38;;
39242;SDS011;29823;47.404;8.566;2023-07-13T02:38:15;0.47;;;0.47;;
39242;SDS011;29823;47.404;8.566;2023-07-13T02:40:43;1.00;;;0.57;;
39242;SDS011;29823;47.404;8.566;2023-07-13T02:43:11;0.20;;;0.20;;
39242;SDS011;29823;47.404;8.566;2023-07-13T02:45:44;1.95;;;1.30;;
39242;SDS011;29823;47.404;8.566;2023-07-13T02:48:13;0.68;;;0.65;;
39242;SDS011;29823;47.404;8.566;2023-07-13T02:50:41;2.40;;;0.52;;
39242;SDS011;29823;47.404;8.566;2023-07-13T02:53:09;1.45;;;0.30;;
39242;SDS011;29823;47.404;8.566;2023-07-13T02:55:37;0.10;;;0.10;;
39242;SDS011;29823;47.404;8.566;2023-07-13T02:58:07;0.00;;;0.00;;
39242;SDS011;29823;47.404;8.566;2023-07-13T03:00:34;0.55;;;0.45;;
39242;SDS011;29823;47.404;8.566;2023-07-13T03:03:09;0.35;;;0.20;;
39242;SDS011;29823;47.404;8.566;2023-07-13T03:05:37;0.82;;;0.82;;
39242;SDS011;29823;47.404;8.566;2023-07-13T03:08:05;0.10;;;0.10;;
39242;SDS011;29823;47.404;8.566;2023-07-13T03:10:33;0.35;;;0.20;;
39242;SDS011;29823;47.404;8.566;2023-07-13T03:13:01;1.00;;;0.70;;
39242;SDS011;29823;47.404;8.566;2023-07-13T03:15:29;0.10;;;0.10;;
39242;SDS011;29823;47.404;8.566;2023-07-13T03:17:57;0.05;;;0.05;;
39242;SDS011;29823;47.404;8.566;2023-07-13T03:20:26;0.28;;;0.22;;
39242;SDS011;29823;47.404;8.566;2023-07-13T03:22:54;0.50;;;0.38;;
39242;SDS011;29823;47.404;8.566;2023-07-13T03:25:22;0.40;;;0.40;;
39242;SDS011;29823;47.404;8.566;2023-07-13T03:27:50;0.05;;;0.05;;
39242;SDS011;29823;47.404;8.566;2023-07-13T03:30:18;0.20;;;0.20;;
39242;SDS011;29823;47.404;8.566;2023-07-13T03:32:45;0.35;;;0.22;;
39242;SDS011;29823;47.404;8.566;2023-07-13T03:35:14;0.30;;;0.30;;
39242;SDS011;29823;47.404;8.566;2023-07-13T03:37:43;0.20;;;0.20;;
39242;SDS011;29823;47.404;8.566;2023-07-13T03:40:12;0.13;;;0.13;;
39242;SDS011;29823;47.404;8.566;2023-07-13T03:42:40;0.55;;;0.55;;
39242;SDS011;29823;47.404;8.566;2023-07-13T03:45:08;0.35;;;0.35;;
39242;SDS011;29823;47.404;8.566;2023-07-13T03:47:36;0.10;;;0.10;;
39242;SDS011;29823;47.404;8.566;2023-07-13T03:50:04;0.00;;;0.00;;
39242;SDS011;29823;47.404;8.566;2023-07-13T03:52:33;0.00;;;0.00;;
39242;SDS011;29823;47.404;8.566;2023-07-13T03:55:02;0.00;;;0.00;;
39242;SDS011;29823;47.404;8.566;2023-07-13T03:57:30;0.10;;;0.10;;
39242;SDS011;29823;47.404;8.566;2023-07-13T03:59:58;0.52;;;0.52;;
39242;SDS011;29823;47.404;8.566;2023-07-13T04:02:26;0.20;;;0.20;;
39242;SDS011;29823;47.404;8.566;2023-07-13T04:04:53;0.43;;;0.43;;
39242;SDS011;29823;47.404;8.566;2023-07-13T04:07:21;0.17;;;0.17;;
39242;SDS011;29823;47.404;8.566;2023-07-13T04:09:49;0.30;;;0.30;;
39242;SDS011;29823;47.404;8.566;2023-07-13T04:12:18;0.52;;;0.20;;
39242;SDS011;29823;47.404;8.566;2023-07-13T04:14:46;1.67;;;0.55;;
39242;SDS011;29823;47.404;8.566;2023-07-13T04:17:14;0.30;;;0.30;;
39242;SDS011;29823;47.404;8.566;2023-07-13T04:19:41;0.15;;;0.15;;
39242;SDS011;29823;47.404;8.566;2023-07-13T04:22:09;0.03;;;0.03;;
39242;SDS011;29823;47.404;8.566;2023-07-13T04:24:37;2.30;;;1.17;;
39242;SDS011;29823;47.404;8.566;2023-07-13T04:27:05;1.70;;;0.52;;
39242;SDS011;29823;47.404;8.566;2023-07-13T04:29:35;0.20;;;0.20;;
39242;SDS011;29823;47.404;8.566;2023-07-13T04:32:03;0.40;;;0.40;;
39242;SDS011;29823;47.404;8.566;2023-07-13T04:34:31;0.00;;;0.00;;
39242;SDS011;29823;47.404;8.566;2023-07-13T04:37:01;1.38;;;0.82;;
39242;SDS011;29823;47.404;8.566;2023-07-13T04:39:28;0.20;;;0.20;;
39242;SDS011;29823;47.404;8.566;2023-07-13T04:41:56;0.10;;;0.10;;
39242;SDS011;29823;47.404;8.566;2023-07-13T04:44:24;0.20;;;0.13;;
39242;SDS011;29823;47.404;8.566;2023-07-13T04:46:53;0.10;;;0.10;;
39242;SDS011;29823;47.404;8.566;2023-07-13T04:49:21;0.43;;;0.43;;
39242;SDS011;29823;47.404;8.566;2023-07-13T04:51:49;0.03;;;0.03;;
39242;SDS011;29823;47.404;8.566;2023-07-13T04:54:17;0.20;;;0.20;;
39242;SDS011;29823;47.404;8.566;2023-07-13T04:56:44;0.00;;;0.00;;
39242;SDS011;29823;47.404;8.566;2023-07-13T04:59:12;0.35;;;0.35;;
39242;SDS011;29823;47.404;8.566;2023-07-13T05:01:40;0.32;;;0.32;;
39242;SDS011;29823;47.404;8.566;2023-07-13T05:04:09;0.68;;;0.47;;
39242;SDS011;29823;47.404;8.566;2023-07-13T05:06:38;0.10;;;0.10;;
39242;SDS011;29823;47.404;8.566;2023-07-13T05:09:06;0.20;;;0.20;;
39242;SDS011;29823;47.404;8.566;2023-07-13T05:11:34;0.20;;;0.20;;
39242;SDS011;29823;47.404;8.566;2023-07-13T05:14:02;1.75;;;0.20;;
39242;SDS011;29823;47.404;8.566;2023-07-13T05:16:30;0.20;;;0.20;;
39242;SDS011;29823;47.404;8.566;2023-07-13T05:18:58;0.10;;;0.10;;
39242;SDS011;29823;47.404;8.566;2023-07-13T05:21:27;0.22;;;0.15;;
39242;SDS011;29823;47.404;8.566;2023-07-13T05:23:55;0.00;;;0.00;;
39242;SDS011;29823;47.404;8.566;2023-07-13T05:26:25;0.30;;;0.30;;
39242;SDS011;29823;47.404;8.566;2023-07-13T05:28:53;0.10;;;0.10;;
39242;SDS011;29823;47.404;8.566;2023-07-13T05:31:21;0.00;;;0.00;;
39242;SDS011;29823;47.404;8.566;2023-07-13T05:33:49;0.00;;;0.00;;
39242;SDS011;29823;47.404;8.566;2023-07-13T05:36:17;0.13;;;0.13;;
39242;SDS011;29823;47.404;8.566;2023-07-13T05:38:46;2.20;;;1.58;;
39242;SDS011;29823;47.404;8.566;2023-07-13T05:41:14;0.30;;;0.30;;
39242;SDS011;29823;47.404;8.566;2023-07-13T05:43:41;0.88;;;0.52;;
39242;SDS011;29823;47.404;8.566;2023-07-13T05:46:09;0.95;;;0.77;;
39242;SDS011;29823;47.404;8.566;2023-07-13T05:48:37;0.10;;;0.10;;
39242;SDS011;29823;47.404;8.566;2023-07-13T05:51:05;3.08;;;1.13;;
39242;SDS011;29823;47.404;8.566;2023-07-13T05:53:33;0.20;;;0.20;;
39242;SDS011;29823;47.404;8.566;2023-07-13T05:56:03;0.00;;;0.00;;
39242;SDS011;29823;47.404;8.566;2023-07-13T05:58:31;0.95;;;0.68;;
39242;SDS011;29823;47.404;8.566;2023-07-13T06:01:00;0.38;;;0.38;;
39242;SDS011;29823;47.404;8.566;2023-07-13T06:03:29;0.10;;;0.10;;
39242;SDS011;29823;47.404;8.566;2023-07-13T06:05:57;1.80;;;0.70;;
39242;SDS011;29823;47.404;8.566;2023-07-13T06:08:27;0.20;;;0.20;;
39242;SDS011;29823;47.404;8.566;2023-07-13T06:10:58;2.65;;;0.73;;
39242;SDS011;29823;47.404;8.566;2023-07-13T06:13:31;1.00;;;0.90;;
39242;SDS011;29823;47.404;8.566;2023-07-13T06:15:59;0.30;;;0.30;;
39242;SDS011;29823;47.404;8.566;2023-07-13T06:18:30;0.75;;;0.55;;
39242;SDS011;29823;47.404;8.566;2023-07-13T06:20:59;0.17;;;0.17;;
39242;SDS011;29823;47.404;8.566;2023-07-13T06:23:27;0.20;;;0.20;;
39242;SDS011;29823;47.404;8.566;2023-07-13T06:25:54;0.50;;;0.50;;
39242;SDS011;29823;47.404;8.566;2023-07-13T06:28:24;0.10;;;0.10;;
39242;SDS011;29823;47.404;8.566;2023-07-13T06:30:51;1.75;;;0.77;;
39242;SDS011;29823;47.404;8.566;2023-07-13T06:33:21;0.10;;;0.10;;
39242;SDS011;29823;47.404;8.566;2023-07-13T06:35:51;0.30;;;0.30;;
39242;SDS011;29823;47.404;8.566;2023-07-13T06:38:19;1.10;;;0.60;;
39242;SDS011;29823;47.404;8.566;2023-07-13T06:40:47;0.30;;;0.25;;
39242;SDS011;29823;47.404;8.566;2023-07-13T06:43:14;0.00;;;0.00;;
39242;SDS011;29823;47.404;8.566;2023-07-13T06:45:45;0.65;;;0.20;;
39242;SDS011;29823;47.404;8.566;2023-07-13T06:48:15;0.93;;;0.88;;
39242;SDS011;29823;47.404;8.566;2023-07-13T06:50:44;2.00;;;0.40;;
39242;SDS011;29823;47.404;8.566;2023-07-13T06:53:13;1.17;;;0.88;;
39242;SDS011;29823;47.404;8.566;2023-07-13T06:55:43;0.05;;;0.05;;
39242;SDS011;29823;47.404;8.566;2023-07-13T06:58:11;2.65;;;0.80;;
39242;SDS011;29823;47.404;8.566;2023-07-13T07:00:39;1.65;;;0.65;;
39242;SDS011;29823;47.404;8.566;2023-07-13T07:03:08;0.22;;;0.22;;
39242;SDS011;29823;47.404;8.566;2023-07-13T07:05:37;0.03;;;0.03;;
39242;SDS011;29823;47.404;8.566;2023-07-13T07:08:04;0.00;;;0.00;;
39242;SDS011;29823;47.404;8.566;2023-07-13T07:10:33;0.10;;;0.10;;
39242;SDS011;29823;47.404;8.566;2023-07-13T07:13:02;0.65;;;0.43;;
39242;SDS011;29823;47.404;8.566;2023-07-13T07:15:30;0.30;;;0.30;;
39242;SDS011;29823;47.404;8.566;2023-07-13T07:17:58;0.30;;;0.30;;
39242;SDS011;29823;47.404;8.566;2023-07-13T07:20:27;0.10;;;0.10;;
39242;SDS011;29823;47.404;8.566;2023-07-13T07:22:56;1.00;;;0.52;;
39242;SDS011;29823;47.404;8.566;2023-07-13T07:25:24;0.30;;;0.30;;
39242;SDS011;29823;47.404;8.566;2023-07-13T07:27:52;0.98;;;0.30;;
39242;SDS011;29823;47.404;8.566;2023-07-13T07:30:23;0.20;;;0.20;;
39242;SDS011;29823;47.404;8.566;2023-07-13T07:32:53;0.00;;;0.00;;
39242;SDS011;29823;47.404;8.566;2023-07-13T07:35:23;0.00;;;0.00;;
39242;SDS011;29823;47.404;8.566;2023-07-13T07:37:52;0.10;;;0.10;;
39242;SDS011;29823;47.404;8.566;2023-07-13T07:40:20;0.57;;;0.45;;
39242;SDS011;29823;47.404;8.566;2023-07-13T07:42:50;0.00;;;0.00;;
39242;SDS011;29823;47.404;8.566;2023-07-13T07:45:18;0.30;;;0.30;;
39242;SDS011;29823;47.404;8.566;2023-07-13T07:47:46;0.22;;;0.22;;
39242;SDS011;29823;47.404;8.566;2023-07-13T07:50:14;1.65;;;0.80;;
39242;SDS011;29823;47.404;8.566;2023-07-13T07:52:42;0.10;;;0.10;;
39242;SDS011;29823;47.404;8.566;2023-07-13T07:55:12;0.25;;;0.25;;
39242;SDS011;29823;47.404;8.566;2023-07-13T08:00:13;0.10;;;0.10;;
39242;SDS011;29823;47.404;8.566;2023-07-13T08:02:45;0.10;;;0.10;;
39242;SDS011;29823;47.404;8.566;2023-07-13T08:05:16;0.10;;;0.10;;
39242;SDS011;29823;47.404;8.566;2023-07-13T08:08:01;0.35;;;0.20;;
39242;SDS011;29823;47.404;8.566;2023-07-13T08:10:31;3.92;;;0.30;;
39242;SDS011;29823;47.404;8.566;2023-07-13T08:12:58;0.10;;;0.10;;
39242;SDS011;29823;47.404;8.566;2023-07-13T08:15:29;1.73;;;0.85;;
39242;SDS011;29823;47.404;8.566;2023-07-13T08:17:57;0.20;;;0.20;;
39242;SDS011;29823;47.404;8.566;2023-07-13T08:20:25;0.10;;;0.10;;
39242;SDS011;29823;47.404;8.566;2023-07-13T08:22:52;0.10;;;0.10;;
39242;SDS011;29823;47.404;8.566;2023-07-13T08:25:20;0.00;;;0.00;;
39242;SDS011;29823;47.404;8.566;2023-07-13T08:27:50;0.38;;;0.20;;
39242;SDS011;29823;47.404;8.566;2023-07-13T08:30:18;0.00;;;0.00;;
39242;SDS011;29823;47.404;8.566;2023-07-13T08:32:46;0.30;;;0.30;;
39242;SDS011;29823;47.404;8.566;2023-07-13T08:35:14;0.30;;;0.30;;
39242;SDS011;29823;47.404;8.566;2023-07-13T08:37:43;0.00;;;0.00;;
39242;SDS011;29823;47.404;8.566;2023-07-13T08:40:11;0.00;;;0.00;;
39242;SDS011;29823;47.404;8.566;2023-07-13T08:42:40;0.10;;;0.10;;
39242;SDS011;29823;47.404;8.566;2023-07-13T08:45:17;0.10;;;0.10;;
39242;SDS011;29823;47.404;8.566;2023-07-13T08:47:51;0.63;;;0.25;;
39242;SDS011;29823;47.404;8.566;2023-07-13T08:50:23;0.10;;;0.10;;
39242;SDS011;29823;47.404;8.566;2023-07-13T08:53:19;0.00;;;0.00;;
39242;SDS011;29823;47.404;8.566;2023-07-13T08:55:57;0.10;;;0.10;;
39242;SDS011;29823;47.404;8.566;2023-07-13T08:58:26;0.03;;;0.03;;
39242;SDS011;29823;47.404;8.566;2023-07-13T09:00:58;0.00;;;0.00;;
39242;SDS011;29823;47.404;8.566;2023-07-13T09:03:35;0.55;;;0.38;;
39242;SDS011;29823;47.404;8.566;2023-07-13T09:06:08;0.25;;;0.25;;
39242;SDS011;29823;47.404;8.566;2023-07-13T09:08:50;0.05;;;0.05;;
39242;SDS011;29823;47.404;8.566;2023-07-13T09:11:30;0.13;;;0.13;;
39242;SDS011;29823;47.404;8.566;2023-07-13T09:14:11;0.03;;;0.03;;
39242;SDS011;29823;47.404;8.566;2023-07-13T09:17:11;0.52;;;0.52;;
39242;SDS011;29823;47.404;8.566;2023-07-13T09:19:43;0.90;;;0.43;;
39242;SDS011;29823;47.404;8.566;2023-07-13T09:22:17;0.10;;;0.10;;
39242;SDS011;29823;47.404;8.566;2023-07-13T09:24:50;0.10;;;0.10;;
39242;SDS011;29823;47.404;8.566;2023-07-13T09:27:27;0.10;;;0.10;;
39242;SDS011;29823;47.404;8.566;2023-07-13T09:30:02;0.50;;;0.50;;
39242;SDS011;29823;47.404;8.566;2023-07-13T09:32:40;0.30;;;0.30;;
39242;SDS011;29823;47.404;8.566;2023-07-13T09:35:10;0.00;;;0.00;;
39242;SDS011;29823;47.404;8.566;2023-07-13T09:37:38;0.10;;;0.10;;
39242;SDS011;29823;47.404;8.566;2023-07-13T09:40:08;0.00;;;0.00;;
39242;SDS011;29823;47.404;8.566;2023-07-13T09:42:42;0.28;;;0.28;;
39242;SDS011;29823;47.404;8.566;2023-07-13T09:45:10;0.03;;;0.03;;
39242;SDS011;29823;47.404;8.566;2023-07-13T09:47:39;0.17;;;0.17;;
39242;SDS011;29823;47.404;8.566;2023-07-13T09:50:09;0.10;;;0.10;;
39242;SDS011;29823;47.404;8.566;2023-07-13T09:52:43;0.00;;;0.00;;
39242;SDS011;29823;47.404;8.566;2023-07-13T09:55:24;0.22;;;0.22;;
39242;SDS011;29823;47.404;8.566;2023-07-13T09:57:53;0.10;;;0.10;;
39242;SDS011;29823;47.404;8.566;2023-07-13T10:00:22;0.00;;;0.00;;
39242;SDS011;29823;47.404;8.566;2023-07-13T10:02:59;0.10;;;0.10;;
39242;SDS011;29823;47.404;8.566;2023-07-13T10:05:39;0.10;;;0.10;;
39242;SDS011;29823;47.404;8.566;2023-07-13T10:08:17;0.60;;;0.55;;
39242;SDS011;29823;47.404;8.566;2023-07-13T10:10:46;0.10;;;0.10;;
39242;SDS011;29823;47.404;8.566;2023-07-13T10:13:24;0.08;;;0.08;;
39242;SDS011;29823;47.404;8.566;2023-07-13T10:15:55;3.25;;;1.08;;
39242;SDS011;29823;47.404;8.566;2023-07-13T10:18:26;0.20;;;0.20;;
39242;SDS011;29823;47.404;8.566;2023-07-13T10:20:58;0.20;;;0.20;;
39242;SDS011;29823;47.404;8.566;2023-07-13T10:23:58;0.88;;;0.43;;
39242;SDS011;29823;47.404;8.566;2023-07-13T10:26:32;2.95;;;0.80;;
39242;SDS011;29823;47.404;8.566;2023-07-13T10:29:03;0.00;;;0.00;;
39242;SDS011;29823;47.404;8.566;2023-07-13T10:31:35;0.90;;;0.75;;
39242;SDS011;29823;47.404;8.566;2023-07-13T10:34:08;0.00;;;0.00;;
39242;SDS011;29823;47.404;8.566;2023-07-13T10:36:38;0.35;;;0.22;;
39242;SDS011;29823;47.404;8.566;2023-07-13T10:39:09;0.00;;;0.00;;
39242;SDS011;29823;47.404;8.566;2023-07-13T10:41:44;0.15;;;0.15;;
39242;SDS011;29823;47.404;8.566;2023-07-13T10:44:17;0.17;;;0.15;;
39242;SDS011;29823;47.404;8.566;2023-07-13T10:46:53;3.00;;;2.22;;
39242;SDS011;29823;47.404;8.566;2023-07-13T10:49:26;4.70;;;2.10;;
39242;SDS011;29823;47.404;8.566;2023-07-13T10:51:55;2.95;;;2.10;;
39242;SDS011;29823;47.404;8.566;2023-07-13T10:54:26;5.80;;;2.03;;
39242;SDS011;29823;47.404;8.566;2023-07-13T10:57:08;5.53;;;2.40;;
39242;SDS011;29823;47.404;8.566;2023-07-13T10:59:43;4.50;;;2.42;;
39242;SDS011;29823;47.404;8.566;2023-07-13T11:02:23;3.17;;;1.95;;
39242;SDS011;29823;47.404;8.566;2023-07-13T11:04:55;2.63;;;1.77;;
39242;SDS011;29823;47.404;8.566;2023-07-13T11:07:25;8.52;;;2.20;;
39242;SDS011;29823;47.404;8.566;2023-07-13T11:09:56;3.35;;;1.92;;
39242;SDS011;29823;47.404;8.566;2023-07-13T11:12:27;8.45;;;2.20;;
39242;SDS011;29823;47.404;8.566;2023-07-13T11:15:11;4.63;;;1.90;;
39242;SDS011;29823;47.404;8.566;2023-07-13T11:17:49;4.95;;;1.88;;
39242;SDS011;29823;47.404;8.566;2023-07-13T11:20:34;3.22;;;1.70;;
39242;SDS011;29823;47.404;8.566;2023-07-13T11:25:58;6.63;;;1.85;;
39242;SDS011;29823;47.404;8.566;2023-07-13T11:28:29;4.55;;;1.90;;
39242;SDS011;29823;47.404;8.566;2023-07-13T11:31:00;5.85;;;1.60;;
39242;SDS011;29823;47.404;8.566;2023-07-13T11:33:46;2.92;;;1.55;;
39242;SDS011;29823;47.404;8.566;2023-07-13T11:36:22;5.97;;;1.88;;
39242;SDS011;29823;47.404;8.566;2023-07-13T11:38:56;3.40;;;1.52;;
39242;SDS011;29823;47.404;8.566;2023-07-13T11:41:29;2.88;;;1.48;;
39242;SDS011;29823;47.404;8.566;2023-07-13T11:44:06;12.02;;;8.57;;
39242;SDS011;29823;47.404;8.566;2023-07-13T11:46:38;5.50;;;1.55;;
39242;SDS011;29823;47.404;8.566;2023-07-13T11:49:13;6.63;;;1.80;;
39242;SDS011;29823;47.404;8.566;2023-07-13T11:51:44;4.45;;;1.63;;
39242;SDS011;29823;47.404;8.566;2023-07-13T11:54:17;3.95;;;1.55;;
39242;SDS011;29823;47.404;8.566;2023-07-13T11:56:52;8.23;;;1.65;;
39242;SDS011;29823;47.404;8.566;2023-07-13T11:59:21;4.60;;;1.60;;
39242;SDS011;29823;47.404;8.566;2023-07-13T12:01:50;6.75;;;1.70;;
39242;SDS011;29823;47.404;8.566;2023-07-13T12:04:21;3.80;;;1.30;;
39242;SDS011;29823;47.404;8.566;2023-07-13T12:06:56;2.65;;;1.40;;
39242;SDS011;29823;47.404;8.566;2023-07-13T12:09:26;3.80;;;1.73;;
39242;SDS011;29823;47.404;8.566;2023-07-13T12:11:56;2.40;;;1.40;;
39242;SDS011;29823;47.404;8.566;2023-07-13T12:14:26;4.03;;;1.45;;
39242;SDS011;29823;47.404;8.566;2023-07-13T12:16:54;6.53;;;1.83;;
39242;SDS011;29823;47.404;8.566;2023-07-13T12:19:24;8.07;;;1.73;;
39242;SDS011;29823;47.404;8.566;2023-07-13T12:21:54;3.40;;;1.75;;
39242;SDS011;29823;47.404;8.566;2023-07-13T12:24:26;3.38;;;1.70;;
39242;SDS011;29823;47.404;8.566;2023-07-13T12:26:58;2.95;;;1.48;;
39242;SDS011;29823;47.404;8.566;2023-07-13T12:29:28;4.50;;;1.75;;
39242;SDS011;29823;47.404;8.566;2023-07-13T12:31:55;5.25;;;1.63;;
39242;SDS011;29823;47.404;8.566;2023-07-13T12:34:24;3.75;;;1.65;;
39242;SDS011;29823;47.404;8.566;2023-07-13T12:36:54;2.37;;;1.50;;
39242;SDS011;29823;47.404;8.566;2023-07-13T12:39:28;2.80;;;1.50;;
39242;SDS011;29823;47.404;8.566;2023-07-13T12:42:13;5.18;;;1.63;;
39242;SDS011;29823;47.404;8.566;2023-07-13T12:44:47;8.48;;;2.00;;
39242;SDS011;29823;47.404;8.566;2023-07-13T12:47:15;3.60;;;1.60;;
39242;SDS011;29823;47.404;8.566;2023-07-13T12:49:47;4.93;;;1.80;;
39242;SDS011;29823;47.404;8.566;2023-07-13T12:52:20;3.97;;;1.50;;
39242;SDS011;29823;47.404;8.566;2023-07-13T12:54:52;4.43;;;1.83;;
39242;SDS011;29823;47.404;8.566;2023-07-13T12:57:31;4.65;;;2.15;;
39242;SDS011;29823;47.404;8.566;2023-07-13T12:59:59;5.13;;;1.48;;
39242;SDS011;29823;47.404;8.566;2023-07-13T13:02:31;3.65;;;1.88;;
39242;SDS011;29823;47.404;8.566;2023-07-13T13:05:02;3.08;;;1.75;;
39242;SDS011;29823;47.404;8.566;2023-07-13T13:07:33;3.38;;;1.98;;
39242;SDS011;29823;47.404;8.566;2023-07-13T13:10:01;4.10;;;2.03;;
39242;SDS011;29823;47.404;8.566;2023-07-13T13:12:38;14.50;;;2.20;;
39242;SDS011;29823;47.404;8.566;2023-07-13T13:15:08;2.53;;;1.80;;
39242;SDS011;29823;47.404;8.566;2023-07-13T13:17:37;5.18;;;2.10;;
39242;SDS011;29823;47.404;8.566;2023-07-13T13:20:12;3.40;;;1.95;;
39242;SDS011;29823;47.404;8.566;2023-07-13T13:22:43;7.03;;;1.70;;
39242;SDS011;29823;47.404;8.566;2023-07-13T13:25:11;6.93;;;1.63;;
39242;SDS011;29823;47.404;8.566;2023-07-13T13:27:40;7.88;;;1.70;;
39242;SDS011;29823;47.404;8.566;2023-07-13T13:30:11;3.85;;;1.60;;
39242;SDS011;29823;47.404;8.566;2023-07-13T13:32:40;2.63;;;1.40;;
39242;SDS011;29823;47.404;8.566;2023-07-13T13:35:12;2.67;;;1.65;;
39242;SDS011;29823;47.404;8.566;2023-07-13T13:37:41;3.20;;;1.35;;
39242;SDS011;29823;47.404;8.566;2023-07-13T13:40:16;5.15;;;1.42;;
39242;SDS011;29823;47.404;8.566;2023-07-13T13:42:45;4.88;;;1.40;;
39242;SDS011;29823;47.404;8.566;2023-07-13T13:45:13;4.70;;;1.90;;
39242;SDS011;29823;47.404;8.566;2023-07-13T13:47:44;8.68;;;1.70;;
39242;SDS011;29823;47.404;8.566;2023-07-13T13:50:13;5.07;;;1.67;;
39242;SDS011;29823;47.404;8.566;2023-07-13T13:55:12;3.25;;;1.50;;
39242;SDS011;29823;47.404;8.566;2023-07-13T13:57:42;2.47;;;1.30;;
39242;SDS011;29823;47.404;8.566;2023-07-13T14:00:10;4.40;;;1.33;;
39242;SDS011;29823;47.404;8.566;2023-07-13T14:02:41;3.22;;;1.30;;
39242;SDS011;29823;47.404;8.566;2023-07-13T14:05:14;2.83;;;1.48;;
39242;SDS011;29823;47.404;8.566;2023-07-13T14:07:45;2.17;;;1.20;;
39242;SDS011;29823;47.404;8.566;2023-07-13T14:10:15;10.38;;;1.85;;
39242;SDS011;29823;47.404;8.566;2023-07-13T14:12:46;4.60;;;1.70;;
39242;SDS011;29823;47.404;8.566;2023-07-13T14:15:17;3.80;;;1.40;;
39242;SDS011;29823;47.404;8.566;2023-07-13T14:17:48;4.18;;;1.83;;
39242;SDS011;29823;47.404;8.566;2023-07-13T14:20:17;11.77;;;1.50;;
39242;SDS011;29823;47.404;8.566;2023-07-13T14:22:45;4.30;;;1.30;;
39242;SDS011;29823;47.404;8.566;2023-07-13T14:25:15;3.15;;;1.70;;
39242;SDS011;29823;47.404;8.566;2023-07-13T14:27:46;3.25;;;1.67;;
39242;SDS011;29823;47.404;8.566;2023-07-13T14:30:18;6.10;;;1.40;;
39242;SDS011;29823;47.404;8.566;2023-07-13T14:32:47;4.57;;;1.70;;
39242;SDS011;29823;47.404;8.566;2023-07-13T14:35:16;2.47;;;1.40;;
39242;SDS011;29823;47.404;8.566;2023-07-13T14:37:46;8.02;;;1.42;;
39242;SDS011;29823;47.404;8.566;2023-07-13T14:40:16;9.27;;;1.77;;
39242;SDS011;29823;47.404;8.566;2023-07-13T14:42:48;2.92;;;1.67;;
39242;SDS011;29823;47.404;8.566;2023-07-13T14:45:16;6.70;;;1.60;;
39242;SDS011;29823;47.404;8.566;2023-07-13T14:47:46;3.63;;;1.53;;
39242;SDS011;29823;47.404;8.566;2023-07-13T14:50:15;6.40;;;1.63;;
39242;SDS011;29823;47.404;8.566;2023-07-13T14:52:45;4.88;;;1.67;;
39242;SDS011;29823;47.404;8.566;2023-07-13T14:55:15;4.28;;;1.67;;
39242;SDS011;29823;47.404;8.566;2023-07-13T14:57:45;3.05;;;1.40;;
39242;SDS011;29823;47.404;8.566;2023-07-13T15:00:15;2.33;;;1.35;;
39242;SDS011;29823;47.404;8.566;2023-07-13T15:02:45;3.95;;;1.40;;
39242;SDS011;29823;47.404;8.566;2023-07-13T15:05:18;4.30;;;1.30;;
39242;SDS011;29823;47.404;8.566;2023-07-13T15:07:49;4.13;;;1.35;;
39242;SDS011;29823;47.404;8.566;2023-07-13T15:10:19;6.40;;;1.48;;
39242;SDS011;29823;47.404;8.566;2023-07-13T15:12:50;5.75;;;1.20;;